sensor_id;sensor_type;location;lat;lon;timestamp;temperature;humidity
60495;DHT22;46342;49.046;11.920;2024-02-26T00:01:08;6.70;59.90
60495;DHT22;46342;49.046;11.920;2024-02-26T00:03:33;6.70;60.90
60495;DHT22;46342;49.046;11.920;2024-02-26T00:06:01;6.70;60.00
60495;DHT22;46342;49.046;11.920;2024-02-26T00:08:33;6.60;60.00
60495;DHT22;46342;49.046;11.920;2024-02-26T00:10:59;6.60;60.00
60495;DHT22;46342;49.046;11.920;2024-02-26T00:13:24;6.60;60.00
60495;DHT22;46342;49.046;11.920;2024-02-26T00:15:50;6.60;60.10
60495;DHT22;46342;49.046;11.920;2024-02-26T00:18:15;6.60;60.10
60495;DHT22;46342;49.046;11.920;2024-02-26T00:20:41;6.60;60.10
60495;DHT22;46342;49.046;11.920;2024-02-26T00:23:08;6.50;60.00
60495;DHT22;46342;49.046;11.920;2024-02-26T00:25:34;6.50;60.00
60495;DHT22;46342;49.046;11.920;2024-02-26T00:27:59;6.50;60.10
60495;DHT22;46342;49.046;11.920;2024-02-26T00:30:25;6.50;60.10
60495;DHT22;46342;49.046;11.920;2024-02-26T00:32:51;6.50;60.10
60495;DHT22;46342;49.046;11.920;2024-02-26T00:35:16;6.40;60.00
60495;DHT22;46342;49.046;11.920;2024-02-26T00:37:45;6.40;60.00
60495;DHT22;46342;49.046;11.920;2024-02-26T00:40:11;6.40;60.00
60495;DHT22;46342;49.046;11.920;2024-02-26T00:42:37;6.40;60.00
60495;DHT22;46342;49.046;11.920;2024-02-26T00:45:03;6.40;60.10
60495;DHT22;46342;49.046;11.920;2024-02-26T00:47:28;6.30;60.00
60495;DHT22;46342;49.046;11.920;2024-02-26T00:49:54;6.30;60.10
60495;DHT22;46342;49.046;11.920;2024-02-26T00:52:19;6.30;60.30
60495;DHT22;46342;49.046;11.920;2024-02-26T00:54:45;6.30;60.40
60495;DHT22;46342;49.046;11.920;2024-02-26T00:57:10;6.30;60.40
60495;DHT22;46342;49.046;11.920;2024-02-26T00:59:36;6.30;60.50
60495;DHT22;46342;49.046;11.920;2024-02-26T01:02:02;6.20;60.50
60495;DHT22;46342;49.046;11.920;2024-02-26T01:04:29;6.20;60.50
60495;DHT22;46342;49.046;11.920;2024-02-26T01:06:55;6.20;60.60
60495;DHT22;46342;49.046;11.920;2024-02-26T01:09:20;6.20;60.60
60495;DHT22;46342;49.046;11.920;2024-02-26T01:11:46;6.20;60.60
60495;DHT22;46342;49.046;11.920;2024-02-26T01:14:12;6.20;60.70
60495;DHT22;46342;49.046;11.920;2024-02-26T01:16:37;6.10;60.50
60495;DHT22;46342;49.046;11.920;2024-02-26T01:19:03;6.10;60.50
60495;DHT22;46342;49.046;11.920;2024-02-26T01:21:29;6.10;60.60
60495;DHT22;46342;49.046;11.920;2024-02-26T01:23:55;6.10;60.60
60495;DHT22;46342;49.046;11.920;2024-02-26T01:26:21;6.10;60.60
60495;DHT22;46342;49.046;11.920;2024-02-26T01:28:47;6.10;60.70
60495;DHT22;46342;49.046;11.920;2024-02-26T01:31:13;6.10;60.80
60495;DHT22;46342;49.046;11.920;2024-02-26T01:33:38;6.10;60.80
60495;DHT22;46342;49.046;11.920;2024-02-26T01:36:04;6.10;60.80
60495;DHT22;46342;49.046;11.920;2024-02-26T01:38:30;6.00;60.80
60495;DHT22;46342;49.046;11.920;2024-02-26T01:40:55;6.00;60.80
60495;DHT22;46342;49.046;11.920;2024-02-26T01:43:21;6.00;60.70
60495;DHT22;46342;49.046;11.920;2024-02-26T01:45:47;6.00;60.70
60495;DHT22;46342;49.046;11.920;2024-02-26T01:48:12;6.00;60.70
60495;DHT22;46342;49.046;11.920;2024-02-26T01:50:38;5.90;60.60
60495;DHT22;46342;49.046;11.920;2024-02-26T01:53:06;5.90;60.70
60495;DHT22;46342;49.046;11.920;2024-02-26T01:55:32;5.90;60.80
60495;DHT22;46342;49.046;11.920;2024-02-26T01:57:58;5.90;60.70
60495;DHT22;46342;49.046;11.920;2024-02-26T02:00:24;5.90;60.60
60495;DHT22;46342;49.046;11.920;2024-02-26T02:02:51;5.90;60.70
60495;DHT22;46342;49.046;11.920;2024-02-26T02:05:17;5.80;60.60
60495;DHT22;46342;49.046;11.920;2024-02-26T02:07:43;5.80;60.70
60495;DHT22;46342;49.046;11.920;2024-02-26T02:10:09;5.80;60.80
60495;DHT22;46342;49.046;11.920;2024-02-26T02:12:35;5.80;60.80
60495;DHT22;46342;49.046;11.920;2024-02-26T02:15:04;5.80;60.90
60495;DHT22;46342;49.046;11.920;2024-02-26T02:17:30;5.80;60.90
60495;DHT22;46342;49.046;11.920;2024-02-26T02:19:56;5.80;61.90
60495;DHT22;46342;49.046;11.920;2024-02-26T02:22:22;5.80;61.00
60495;DHT22;46342;49.046;11.920;2024-02-26T02:24:48;5.70;60.90
60495;DHT22;46342;49.046;11.920;2024-02-26T02:27:14;5.70;61.00
60495;DHT22;46342;49.046;11.920;2024-02-26T02:29:39;5.70;61.10
60495;DHT22;46342;49.046;11.920;2024-02-26T02:32:05;5.70;61.10
60495;DHT22;46342;49.046;11.920;2024-02-26T02:34:32;5.70;61.10
60495;DHT22;46342;49.046;11.920;2024-02-26T02:36:57;5.70;61.20
60495;DHT22;46342;49.046;11.920;2024-02-26T02:39:23;5.70;61.10
60495;DHT22;46342;49.046;11.920;2024-02-26T02:41:49;5.70;61.10
60495;DHT22;46342;49.046;11.920;2024-02-26T02:44:14;5.70;61.10
60495;DHT22;46342;49.046;11.920;2024-02-26T02:46:40;5.70;61.10
60495;DHT22;46342;49.046;11.920;2024-02-26T02:49:12;5.70;61.10
60495;DHT22;46342;49.046;11.920;2024-02-26T02:51:37;5.70;61.50
60495;DHT22;46342;49.046;11.920;2024-02-26T02:54:03;5.70;61.10
60495;DHT22;46342;49.046;11.920;2024-02-26T02:56:29;5.70;61.10
60495;DHT22;46342;49.046;11.920;2024-02-26T02:58:54;5.60;61.10
60495;DHT22;46342;49.046;11.920;2024-02-26T03:01:20;5.60;61.00
60495;DHT22;46342;49.046;11.920;2024-02-26T03:03:45;5.60;61.10
60495;DHT22;46342;49.046;11.920;2024-02-26T03:06:11;5.60;61.90
60495;DHT22;46342;49.046;11.920;2024-02-26T03:08:37;5.60;61.00
60495;DHT22;46342;49.046;11.920;2024-02-26T03:11:05;5.60;61.00
60495;DHT22;46342;49.046;11.920;2024-02-26T03:13:30;5.60;61.00
60495;DHT22;46342;49.046;11.920;2024-02-26T03:15:56;5.50;60.80
60495;DHT22;46342;49.046;11.920;2024-02-26T03:18:22;5.50;60.70
60495;DHT22;46342;49.046;11.920;2024-02-26T03:20:48;5.50;60.70
60495;DHT22;46342;49.046;11.920;2024-02-26T03:23:14;5.50;60.70
60495;DHT22;46342;49.046;11.920;2024-02-26T03:25:42;5.50;60.60
60495;DHT22;46342;49.046;11.920;2024-02-26T03:28:08;5.40;60.50
60495;DHT22;46342;49.046;11.920;2024-02-26T03:30:33;5.40;60.60
60495;DHT22;46342;49.046;11.920;2024-02-26T03:32:59;5.40;60.70
60495;DHT22;46342;49.046;11.920;2024-02-26T03:35:25;5.40;60.80
60495;DHT22;46342;49.046;11.920;2024-02-26T03:37:50;5.40;60.90
60495;DHT22;46342;49.046;11.920;2024-02-26T03:40:17;5.30;60.80
60495;DHT22;46342;49.046;11.920;2024-02-26T03:42:44;5.30;60.80
60495;DHT22;46342;49.046;11.920;2024-02-26T03:45:10;5.30;60.80
60495;DHT22;46342;49.046;11.920;2024-02-26T03:47:37;5.30;60.80
60495;DHT22;46342;49.046;11.920;2024-02-26T03:50:04;5.30;60.80
60495;DHT22;46342;49.046;11.920;2024-02-26T03:52:30;5.30;60.70
60495;DHT22;46342;49.046;11.920;2024-02-26T03:54:55;5.20;60.60
60495;DHT22;46342;49.046;11.920;2024-02-26T03:57:21;5.20;60.70
60495;DHT22;46342;49.046;11.920;2024-02-26T03:59:47;5.20;60.70
60495;DHT22;46342;49.046;11.920;2024-02-26T04:02:12;5.20;60.80
60495;DHT22;46342;49.046;11.920;2024-02-26T04:04:38;5.20;60.80
60495;DHT22;46342;49.046;11.920;2024-02-26T04:07:03;5.20;60.80
60495;DHT22;46342;49.046;11.920;2024-02-26T04:09:31;5.10;60.70
60495;DHT22;46342;49.046;11.920;2024-02-26T04:11:57;5.10;60.80
60495;DHT22;46342;49.046;11.920;2024-02-26T04:14:22;5.10;60.80
60495;DHT22;46342;49.046;11.920;2024-02-26T04:16:48;5.10;60.80
60495;DHT22;46342;49.046;11.920;2024-02-26T04:19:17;5.10;60.80
60495;DHT22;46342;49.046;11.920;2024-02-26T04:21:42;5.10;60.80
60495;DHT22;46342;49.046;11.920;2024-02-26T04:24:08;5.10;61.60
60495;DHT22;46342;49.046;11.920;2024-02-26T04:26:34;5.00;60.60
60495;DHT22;46342;49.046;11.920;2024-02-26T04:29:00;5.00;60.60
60495;DHT22;46342;49.046;11.920;2024-02-26T04:31:25;5.00;60.60
60495;DHT22;46342;49.046;11.920;2024-02-26T04:33:51;5.00;60.70
60495;DHT22;46342;49.046;11.920;2024-02-26T04:36:17;5.00;60.80
60495;DHT22;46342;49.046;11.920;2024-02-26T04:38:44;5.00;60.80
60495;DHT22;46342;49.046;11.920;2024-02-26T04:41:09;5.00;60.90
60495;DHT22;46342;49.046;11.920;2024-02-26T04:43:35;4.90;60.70
60495;DHT22;46342;49.046;11.920;2024-02-26T04:46:07;4.90;60.70
60495;DHT22;46342;49.046;11.920;2024-02-26T04:48:34;4.90;60.60
60495;DHT22;46342;49.046;11.920;2024-02-26T04:50:59;4.90;60.50
60495;DHT22;46342;49.046;11.920;2024-02-26T04:53:25;4.90;60.50
60495;DHT22;46342;49.046;11.920;2024-02-26T04:55:50;4.90;60.30
60495;DHT22;46342;49.046;11.920;2024-02-26T04:58:17;4.80;60.20
60495;DHT22;46342;49.046;11.920;2024-02-26T05:00:42;4.80;60.30
60495;DHT22;46342;49.046;11.920;2024-02-26T05:03:08;4.80;60.30
60495;DHT22;46342;49.046;11.920;2024-02-26T05:05:38;4.80;60.30
60495;DHT22;46342;49.046;11.920;2024-02-26T05:08:04;4.70;60.30
60495;DHT22;46342;49.046;11.920;2024-02-26T05:10:30;4.70;60.30
60495;DHT22;46342;49.046;11.920;2024-02-26T05:12:55;4.70;60.30
60495;DHT22;46342;49.046;11.920;2024-02-26T05:15:21;4.70;60.40
60495;DHT22;46342;49.046;11.920;2024-02-26T05:17:46;4.60;60.30
60495;DHT22;46342;49.046;11.920;2024-02-26T05:20:12;4.60;60.40
60495;DHT22;46342;49.046;11.920;2024-02-26T05:22:37;4.60;60.40
60495;DHT22;46342;49.046;11.920;2024-02-26T05:25:03;4.60;60.40
60495;DHT22;46342;49.046;11.920;2024-02-26T05:27:29;4.60;60.40
60495;DHT22;46342;49.046;11.920;2024-02-26T05:29:55;4.60;60.30
60495;DHT22;46342;49.046;11.920;2024-02-26T05:32:20;4.60;60.30
60495;DHT22;46342;49.046;11.920;2024-02-26T05:34:46;4.50;60.20
60495;DHT22;46342;49.046;11.920;2024-02-26T05:37:11;4.50;60.20
60495;DHT22;46342;49.046;11.920;2024-02-26T05:39:37;4.50;60.20
60495;DHT22;46342;49.046;11.920;2024-02-26T05:42:03;4.50;60.20
60495;DHT22;46342;49.046;11.920;2024-02-26T05:44:28;4.40;60.10
60495;DHT22;46342;49.046;11.920;2024-02-26T05:46:54;4.40;60.10
60495;DHT22;46342;49.046;11.920;2024-02-26T05:49:20;4.40;60.10
60495;DHT22;46342;49.046;11.920;2024-02-26T05:51:46;4.40;60.10
60495;DHT22;46342;49.046;11.920;2024-02-26T05:54:11;4.30;60.00
60495;DHT22;46342;49.046;11.920;2024-02-26T05:56:37;4.30;60.00
60495;DHT22;46342;49.046;11.920;2024-02-26T05:59:02;4.30;60.00
60495;DHT22;46342;49.046;11.920;2024-02-26T06:01:28;4.20;60.00
60495;DHT22;46342;49.046;11.920;2024-02-26T06:03:53;4.20;60.10
60495;DHT22;46342;49.046;11.920;2024-02-26T06:06:19;4.20;60.10
60495;DHT22;46342;49.046;11.920;2024-02-26T06:08:45;4.20;60.10
60495;DHT22;46342;49.046;11.920;2024-02-26T06:11:10;4.20;60.10
60495;DHT22;46342;49.046;11.920;2024-02-26T06:13:36;4.10;60.10
60495;DHT22;46342;49.046;11.920;2024-02-26T06:16:01;4.10;60.10
60495;DHT22;46342;49.046;11.920;2024-02-26T06:18:27;4.10;60.20
60495;DHT22;46342;49.046;11.920;2024-02-26T06:20:53;4.10;60.30
60495;DHT22;46342;49.046;11.920;2024-02-26T06:23:19;4.00;60.40
60495;DHT22;46342;49.046;11.920;2024-02-26T06:25:44;4.00;60.40
60495;DHT22;46342;49.046;11.920;2024-02-26T06:28:10;4.00;60.40
60495;DHT22;46342;49.046;11.920;2024-02-26T06:30:35;4.00;60.50
60495;DHT22;46342;49.046;11.920;2024-02-26T06:33:01;4.00;60.50
60495;DHT22;46342;49.046;11.920;2024-02-26T06:35:27;4.00;60.50
60495;DHT22;46342;49.046;11.920;2024-02-26T06:37:52;4.00;60.50
60495;DHT22;46342;49.046;11.920;2024-02-26T06:40:21;4.00;60.40
60495;DHT22;46342;49.046;11.920;2024-02-26T06:42:47;4.00;60.70
60495;DHT22;46342;49.046;11.920;2024-02-26T06:45:13;4.00;60.60
60495;DHT22;46342;49.046;11.920;2024-02-26T06:47:38;4.00;60.60
60495;DHT22;46342;49.046;11.920;2024-02-26T06:50:04;4.00;60.60
60495;DHT22;46342;49.046;11.920;2024-02-26T06:52:30;4.00;60.60
60495;DHT22;46342;49.046;11.920;2024-02-26T06:54:55;4.00;60.60
60495;DHT22;46342;49.046;11.920;2024-02-26T06:57:21;4.00;60.60
60495;DHT22;46342;49.046;11.920;2024-02-26T06:59:47;4.00;60.70
60495;DHT22;46342;49.046;11.920;2024-02-26T07:02:13;4.00;60.70
60495;DHT22;46342;49.046;11.920;2024-02-26T07:04:39;4.00;60.80
60495;DHT22;46342;49.046;11.920;2024-02-26T07:07:06;3.90;60.70
60495;DHT22;46342;49.046;11.920;2024-02-26T07:09:32;4.00;61.00
60495;DHT22;46342;49.046;11.920;2024-02-26T07:11:57;4.00;61.20
60495;DHT22;46342;49.046;11.920;2024-02-26T07:14:23;4.00;61.40
60495;DHT22;46342;49.046;11.920;2024-02-26T07:16:50;4.00;61.40
60495;DHT22;46342;49.046;11.920;2024-02-26T07:19:15;4.00;61.60
60495;DHT22;46342;49.046;11.920;2024-02-26T07:21:41;4.10;61.90
60495;DHT22;46342;49.046;11.920;2024-02-26T07:24:07;4.10;62.00
60495;DHT22;46342;49.046;11.920;2024-02-26T07:26:32;4.10;62.20
60495;DHT22;46342;49.046;11.920;2024-02-26T07:28:58;4.20;62.30
60495;DHT22;46342;49.046;11.920;2024-02-26T07:31:24;4.20;62.50
60495;DHT22;46342;49.046;11.920;2024-02-26T07:33:49;4.30;62.60
60495;DHT22;46342;49.046;11.920;2024-02-26T07:36:15;4.30;62.70
60495;DHT22;46342;49.046;11.920;2024-02-26T07:38:40;4.40;62.90
60495;DHT22;46342;49.046;11.920;2024-02-26T07:41:06;4.40;63.00
60495;DHT22;46342;49.046;11.920;2024-02-26T07:43:31;4.50;63.10
60495;DHT22;46342;49.046;11.920;2024-02-26T07:45:57;4.60;63.40
60495;DHT22;46342;49.046;11.920;2024-02-26T07:48:23;4.70;63.70
60495;DHT22;46342;49.046;11.920;2024-02-26T07:50:49;4.70;63.70
60495;DHT22;46342;49.046;11.920;2024-02-26T07:53:14;4.80;63.90
60495;DHT22;46342;49.046;11.920;2024-02-26T07:55:40;4.90;64.10
60495;DHT22;46342;49.046;11.920;2024-02-26T07:58:05;5.00;64.30
60495;DHT22;46342;49.046;11.920;2024-02-26T08:00:31;5.10;64.50
60495;DHT22;46342;49.046;11.920;2024-02-26T08:02:56;5.10;64.20
60495;DHT22;46342;49.046;11.920;2024-02-26T08:05:22;5.20;64.20
60495;DHT22;46342;49.046;11.920;2024-02-26T08:07:48;5.30;64.10
60495;DHT22;46342;49.046;11.920;2024-02-26T08:10:13;5.40;64.10
60495;DHT22;46342;49.046;11.920;2024-02-26T08:12:39;5.50;64.20
60495;DHT22;46342;49.046;11.920;2024-02-26T08:15:05;5.60;64.20
60495;DHT22;46342;49.046;11.920;2024-02-26T08:17:31;5.70;64.20
60495;DHT22;46342;49.046;11.920;2024-02-26T08:19:58;5.80;64.20
60495;DHT22;46342;49.046;11.920;2024-02-26T08:22:24;5.90;64.20
60495;DHT22;46342;49.046;11.920;2024-02-26T08:24:50;5.90;63.90
60495;DHT22;46342;49.046;11.920;2024-02-26T08:27:15;6.00;63.90
60495;DHT22;46342;49.046;11.920;2024-02-26T08:29:41;6.10;63.90
60495;DHT22;46342;49.046;11.920;2024-02-26T08:32:06;6.20;64.00
60495;DHT22;46342;49.046;11.920;2024-02-26T08:34:32;6.30;63.90
60495;DHT22;46342;49.046;11.920;2024-02-26T08:36:58;6.40;63.80
60495;DHT22;46342;49.046;11.920;2024-02-26T08:39:23;6.40;63.60
60495;DHT22;46342;49.046;11.920;2024-02-26T08:41:51;6.50;63.60
60495;DHT22;46342;49.046;11.920;2024-02-26T08:44:16;6.60;63.50
60495;DHT22;46342;49.046;11.920;2024-02-26T08:46:42;6.70;63.50
60495;DHT22;46342;49.046;11.920;2024-02-26T08:49:08;6.80;63.60
60495;DHT22;46342;49.046;11.920;2024-02-26T08:51:33;6.80;63.60
60495;DHT22;46342;49.046;11.920;2024-02-26T08:53:59;6.90;63.70
60495;DHT22;46342;49.046;11.920;2024-02-26T08:56:24;7.00;63.80
60495;DHT22;46342;49.046;11.920;2024-02-26T08:58:50;7.10;64.00
60495;DHT22;46342;49.046;11.920;2024-02-26T09:01:19;7.20;64.10
60495;DHT22;46342;49.046;11.920;2024-02-26T09:03:44;7.30;64.40
60495;DHT22;46342;49.046;11.920;2024-02-26T09:06:10;7.40;64.50
60495;DHT22;46342;49.046;11.920;2024-02-26T09:08:37;7.50;64.20
60495;DHT22;46342;49.046;11.920;2024-02-26T09:11:03;7.70;64.30
60495;DHT22;46342;49.046;11.920;2024-02-26T09:13:29;7.80;64.30
60495;DHT22;46342;49.046;11.920;2024-02-26T09:15:54;7.90;64.30
60495;DHT22;46342;49.046;11.920;2024-02-26T09:18:20;8.00;64.10
60495;DHT22;46342;49.046;11.920;2024-02-26T09:20:45;8.10;64.10
60495;DHT22;46342;49.046;11.920;2024-02-26T09:23:11;8.20;63.90
60495;DHT22;46342;49.046;11.920;2024-02-26T09:25:37;8.40;63.90
60495;DHT22;46342;49.046;11.920;2024-02-26T09:28:02;8.50;63.70
60495;DHT22;46342;49.046;11.920;2024-02-26T09:30:28;8.50;63.20
60495;DHT22;46342;49.046;11.920;2024-02-26T09:32:54;8.60;63.00
60495;DHT22;46342;49.046;11.920;2024-02-26T09:35:20;8.70;63.00
60495;DHT22;46342;49.046;11.920;2024-02-26T09:37:46;8.80;62.90
60495;DHT22;46342;49.046;11.920;2024-02-26T09:40:14;8.90;62.80
60495;DHT22;46342;49.046;11.920;2024-02-26T09:42:46;9.00;62.50
60495;DHT22;46342;49.046;11.920;2024-02-26T09:45:18;9.10;61.80
60495;DHT22;46342;49.046;11.920;2024-02-26T09:47:45;9.20;61.70
60495;DHT22;46342;49.046;11.920;2024-02-26T09:50:13;9.20;61.90
60495;DHT22;46342;49.046;11.920;2024-02-26T09:52:41;9.30;62.10
60495;DHT22;46342;49.046;11.920;2024-02-26T09:55:08;9.30;61.80
60495;DHT22;46342;49.046;11.920;2024-02-26T09:57:36;9.40;61.70
60495;DHT22;46342;49.046;11.920;2024-02-26T10:00:03;9.50;61.60
60495;DHT22;46342;49.046;11.920;2024-02-26T10:02:31;9.50;61.20
60495;DHT22;46342;49.046;11.920;2024-02-26T10:04:59;9.60;61.10
60495;DHT22;46342;49.046;11.920;2024-02-26T10:07:30;9.60;60.60
60495;DHT22;46342;49.046;11.920;2024-02-26T10:09:57;9.70;60.60
60495;DHT22;46342;49.046;11.920;2024-02-26T10:12:23;9.70;60.50
60495;DHT22;46342;49.046;11.920;2024-02-26T10:14:51;9.80;60.20
60495;DHT22;46342;49.046;11.920;2024-02-26T10:17:17;9.80;60.10
60495;DHT22;46342;49.046;11.920;2024-02-26T10:19:44;9.80;60.00
60495;DHT22;46342;49.046;11.920;2024-02-26T10:22:09;9.90;60.30
60495;DHT22;46342;49.046;11.920;2024-02-26T10:24:35;9.90;60.30
60495;DHT22;46342;49.046;11.920;2024-02-26T10:27:02;10.00;59.30
60495;DHT22;46342;49.046;11.920;2024-02-26T10:29:28;10.00;59.10
60495;DHT22;46342;49.046;11.920;2024-02-26T10:31:53;10.10;59.10
60495;DHT22;46342;49.046;11.920;2024-02-26T10:34:19;10.10;59.10
60495;DHT22;46342;49.046;11.920;2024-02-26T10:36:45;10.10;59.10
60495;DHT22;46342;49.046;11.920;2024-02-26T10:39:12;10.20;59.10
60495;DHT22;46342;49.046;11.920;2024-02-26T10:41:43;10.20;59.00
60495;DHT22;46342;49.046;11.920;2024-02-26T10:44:10;10.30;58.70
60495;DHT22;46342;49.046;11.920;2024-02-26T10:46:40;10.40;58.80
60495;DHT22;46342;49.046;11.920;2024-02-26T10:49:15;10.40;58.50
60495;DHT22;46342;49.046;11.920;2024-02-26T10:51:44;10.50;58.30
60495;DHT22;46342;49.046;11.920;2024-02-26T10:54:15;10.50;58.60
60495;DHT22;46342;49.046;11.920;2024-02-26T10:56:42;10.60;58.80
60495;DHT22;46342;49.046;11.920;2024-02-26T10:59:09;10.70;59.00
60495;DHT22;46342;49.046;11.920;2024-02-26T11:01:36;10.70;58.70
60495;DHT22;46342;49.046;11.920;2024-02-26T11:04:04;10.80;58.70
60495;DHT22;46342;49.046;11.920;2024-02-26T11:06:30;10.90;58.60
60495;DHT22;46342;49.046;11.920;2024-02-26T11:08:56;11.00;58.60
60495;DHT22;46342;49.046;11.920;2024-02-26T11:11:24;11.00;58.40
60495;DHT22;46342;49.046;11.920;2024-02-26T11:13:51;11.10;58.40
60495;DHT22;46342;49.046;11.920;2024-02-26T11:16:18;11.10;58.30
60495;DHT22;46342;49.046;11.920;2024-02-26T11:18:46;11.20;58.20
60495;DHT22;46342;49.046;11.920;2024-02-26T11:21:16;11.30;58.00
60495;DHT22;46342;49.046;11.920;2024-02-26T11:23:45;11.30;57.80
60495;DHT22;46342;49.046;11.920;2024-02-26T11:26:11;11.40;57.70
60495;DHT22;46342;49.046;11.920;2024-02-26T11:28:39;11.40;57.70
60495;DHT22;46342;49.046;11.920;2024-02-26T11:31:05;11.40;57.30
60495;DHT22;46342;49.046;11.920;2024-02-26T11:33:33;11.50;57.40
60495;DHT22;46342;49.046;11.920;2024-02-26T11:36:11;11.50;57.30
60495;DHT22;46342;49.046;11.920;2024-02-26T11:38:37;11.60;57.30
60495;DHT22;46342;49.046;11.920;2024-02-26T11:41:06;11.60;57.20
60495;DHT22;46342;49.046;11.920;2024-02-26T11:44:05;11.70;57.40
60495;DHT22;46342;49.046;11.920;2024-02-26T11:46:42;11.80;55.90
60495;DHT22;46342;49.046;11.920;2024-02-26T11:51:56;11.90;56.40
60495;DHT22;46342;49.046;11.920;2024-02-26T11:54:53;11.90;56.70
60495;DHT22;46342;49.046;11.920;2024-02-26T11:57:32;12.00;56.10
60495;DHT22;46342;49.046;11.920;2024-02-26T12:02:51;12.20;56.70
60495;DHT22;46342;49.046;11.920;2024-02-26T12:05:23;12.30;56.70
60495;DHT22;46342;49.046;11.920;2024-02-26T12:07:53;12.30;57.20
60495;DHT22;46342;49.046;11.920;2024-02-26T12:10:30;12.40;56.80
60495;DHT22;46342;49.046;11.920;2024-02-26T12:13:06;12.50;56.10
60495;DHT22;46342;49.046;11.920;2024-02-26T12:15:40;12.50;56.80
60495;DHT22;46342;49.046;11.920;2024-02-26T12:18:07;12.60;56.60
60495;DHT22;46342;49.046;11.920;2024-02-26T12:20:33;12.60;56.80
60495;DHT22;46342;49.046;11.920;2024-02-26T12:23:02;12.70;56.60
60495;DHT22;46342;49.046;11.920;2024-02-26T12:25:30;12.80;56.60
60495;DHT22;46342;49.046;11.920;2024-02-26T12:27:57;12.80;56.70
60495;DHT22;46342;49.046;11.920;2024-02-26T12:30:23;12.90;56.70
60495;DHT22;46342;49.046;11.920;2024-02-26T12:32:51;12.90;56.50
60495;DHT22;46342;49.046;11.920;2024-02-26T12:35:18;13.00;56.30
60495;DHT22;46342;49.046;11.920;2024-02-26T12:37:44;13.00;56.30
60495;DHT22;46342;49.046;11.920;2024-02-26T12:40:10;13.10;56.20
60495;DHT22;46342;49.046;11.920;2024-02-26T12:42:36;13.10;56.00
60495;DHT22;46342;49.046;11.920;2024-02-26T12:45:10;13.20;56.10
60495;DHT22;46342;49.046;11.920;2024-02-26T12:47:40;13.30;55.70
60495;DHT22;46342;49.046;11.920;2024-02-26T12:50:06;13.30;55.70
60495;DHT22;46342;49.046;11.920;2024-02-26T12:52:34;13.30;56.00
60495;DHT22;46342;49.046;11.920;2024-02-26T12:55:01;13.40;56.00
60495;DHT22;46342;49.046;11.920;2024-02-26T12:57:31;13.40;55.80
60495;DHT22;46342;49.046;11.920;2024-02-26T13:00:00;13.50;55.50
60495;DHT22;46342;49.046;11.920;2024-02-26T13:02:27;13.60;55.70
60495;DHT22;46342;49.046;11.920;2024-02-26T13:04:54;13.60;55.40
60495;DHT22;46342;49.046;11.920;2024-02-26T13:07:20;13.60;55.00
60495;DHT22;46342;49.046;11.920;2024-02-26T13:09:46;13.70;55.30
60495;DHT22;46342;49.046;11.920;2024-02-26T13:12:12;13.70;54.70
60495;DHT22;46342;49.046;11.920;2024-02-26T13:14:38;13.70;54.20
60495;DHT22;46342;49.046;11.920;2024-02-26T13:17:04;13.70;54.40
60495;DHT22;46342;49.046;11.920;2024-02-26T13:19:30;13.70;54.30
60495;DHT22;46342;49.046;11.920;2024-02-26T13:21:55;13.80;54.30
60495;DHT22;46342;49.046;11.920;2024-02-26T13:24:21;13.80;54.20
60495;DHT22;46342;49.046;11.920;2024-02-26T13:26:54;13.80;54.00
60495;DHT22;46342;49.046;11.920;2024-02-26T13:29:20;13.90;53.00
60495;DHT22;46342;49.046;11.920;2024-02-26T13:31:46;13.90;54.10
60495;DHT22;46342;49.046;11.920;2024-02-26T13:34:25;13.90;54.00
60495;DHT22;46342;49.046;11.920;2024-02-26T13:36:52;14.00;52.70
60495;DHT22;46342;49.046;11.920;2024-02-26T13:39:23;14.00;53.70
60495;DHT22;46342;49.046;11.920;2024-02-26T13:41:49;14.10;52.90
60495;DHT22;46342;49.046;11.920;2024-02-26T13:44:15;14.10;53.40
60495;DHT22;46342;49.046;11.920;2024-02-26T13:46:41;14.10;53.30
60495;DHT22;46342;49.046;11.920;2024-02-26T13:49:09;14.20;53.20
60495;DHT22;46342;49.046;11.920;2024-02-26T13:51:35;14.20;52.50
60495;DHT22;46342;49.046;11.920;2024-02-26T13:54:01;14.20;52.70
60495;DHT22;46342;49.046;11.920;2024-02-26T13:56:27;14.20;52.20
60495;DHT22;46342;49.046;11.920;2024-02-26T13:58:53;14.20;52.20
60495;DHT22;46342;49.046;11.920;2024-02-26T14:01:18;14.20;52.40
60495;DHT22;46342;49.046;11.920;2024-02-26T14:03:44;14.20;52.30
60495;DHT22;46342;49.046;11.920;2024-02-26T14:06:10;14.30;52.40
60495;DHT22;46342;49.046;11.920;2024-02-26T14:08:35;14.20;52.30
60495;DHT22;46342;49.046;11.920;2024-02-26T14:11:01;14.30;52.30
60495;DHT22;46342;49.046;11.920;2024-02-26T14:13:27;14.30;52.20
60495;DHT22;46342;49.046;11.920;2024-02-26T14:15:52;14.30;52.20
60495;DHT22;46342;49.046;11.920;2024-02-26T14:18:18;14.30;52.00
60495;DHT22;46342;49.046;11.920;2024-02-26T14:20:43;14.30;52.00
60495;DHT22;46342;49.046;11.920;2024-02-26T14:23:10;14.40;52.20
60495;DHT22;46342;49.046;11.920;2024-02-26T14:25:36;14.30;52.10
60495;DHT22;46342;49.046;11.920;2024-02-26T14:28:02;14.40;52.20
60495;DHT22;46342;49.046;11.920;2024-02-26T14:30:28;14.30;51.80
60495;DHT22;46342;49.046;11.920;2024-02-26T14:32:53;14.30;51.80
60495;DHT22;46342;49.046;11.920;2024-02-26T14:35:19;14.30;51.80
60495;DHT22;46342;49.046;11.920;2024-02-26T14:37:45;14.30;51.90
60495;DHT22;46342;49.046;11.920;2024-02-26T14:40:15;14.30;52.10
60495;DHT22;46342;49.046;11.920;2024-02-26T14:42:41;14.20;52.20
60495;DHT22;46342;49.046;11.920;2024-02-26T14:45:07;14.20;52.10
60495;DHT22;46342;49.046;11.920;2024-02-26T14:47:35;14.20;52.10
60495;DHT22;46342;49.046;11.920;2024-02-26T14:50:01;14.20;52.10
60495;DHT22;46342;49.046;11.920;2024-02-26T14:52:26;14.20;52.10
60495;DHT22;46342;49.046;11.920;2024-02-26T14:54:52;14.20;52.00
60495;DHT22;46342;49.046;11.920;2024-02-26T14:57:18;14.10;52.10
60495;DHT22;46342;49.046;11.920;2024-02-26T14:59:44;14.20;52.10
60495;DHT22;46342;49.046;11.920;2024-02-26T15:02:10;14.10;52.00
60495;DHT22;46342;49.046;11.920;2024-02-26T15:04:36;14.10;52.00
60495;DHT22;46342;49.046;11.920;2024-02-26T15:07:02;14.10;52.00
60495;DHT22;46342;49.046;11.920;2024-02-26T15:09:28;14.10;52.00
60495;DHT22;46342;49.046;11.920;2024-02-26T15:11:53;14.00;52.00
60495;DHT22;46342;49.046;11.920;2024-02-26T15:14:19;14.00;51.90
60495;DHT22;46342;49.046;11.920;2024-02-26T15:16:44;14.00;51.90
60495;DHT22;46342;49.046;11.920;2024-02-26T15:19:10;13.90;51.80
60495;DHT22;46342;49.046;11.920;2024-02-26T15:21:43;13.90;51.80
60495;DHT22;46342;49.046;11.920;2024-02-26T15:24:09;13.90;51.20
60495;DHT22;46342;49.046;11.920;2024-02-26T15:26:37;13.80;51.80